createdAt,value
2016-10-31T00:00:17.017Z,0
2016-10-31T00:01:26.689Z,0
2016-10-31T00:02:36.958Z,0
2016-10-31T00:03:46.934Z,0
2016-10-31T00:04:56.604Z,0
2016-10-31T00:06:06.594Z,0
2016-10-31T00:07:16.314Z,0
2016-10-31T00:08:26.638Z,0
2016-10-31T00:09:36.964Z,0
2016-10-31T00:10:46.000Z,0
2016-10-31T00:11:55.998Z,0
2016-10-31T00:13:06.276Z,0
2016-10-31T00:14:15.945Z,0
2016-10-31T00:15:25.918Z,0
2016-10-31T00:16:36.199Z,0
2016-10-31T00:17:45.884Z,0
2016-10-31T00:18:55.241Z,0
2016-10-31T00:20:05.278Z,0
2016-10-31T00:21:15.300Z,0
2016-10-31T00:22:25.262Z,0
2016-10-31T00:23:35.229Z,0
2016-10-31T00:24:45.534Z,0
2016-10-31T00:25:55.521Z,0
2016-10-31T00:27:05.488Z,0
2016-10-31T00:28:15.789Z,0
2016-10-31T00:29:25.451Z,0
2016-10-31T00:30:35.743Z,0
2016-10-31T00:31:45.710Z,0
2016-10-31T00:32:56.011Z,0
2016-10-31T00:34:06.278Z,0
2016-10-31T00:35:15.947Z,0
2016-10-31T00:36:26.251Z,0
2016-10-31T00:37:36.529Z,0
2016-10-31T00:38:46.821Z,0
2016-10-31T00:39:56.502Z,0
2016-10-31T00:41:06.467Z,0
2016-10-31T00:42:16.746Z,0
2016-10-31T00:43:27.038Z,0
2016-10-31T00:44:37.018Z,0
2016-10-31T00:45:47.305Z,0
2016-10-31T00:46:57.622Z,0
2016-10-31T00:48:07.922Z,0
2016-10-31T00:49:18.226Z,0
2016-10-31T00:50:28.203Z,0
2016-10-31T00:51:37.873Z,0
2016-10-31T00:52:47.854Z,0
2016-10-31T00:53:58.144Z,0
2016-10-31T00:55:07.857Z,0
2016-10-31T00:56:18.161Z,0
2016-10-31T00:57:28.158Z,0
2016-10-31T00:58:38.433Z,0
2016-10-31T00:59:48.705Z,0
2016-10-31T01:00:58.686Z,0
2016-10-31T01:02:08.970Z,0
2016-10-31T01:03:18.996Z,0
2016-10-31T01:04:29.316Z,0
2016-10-31T01:05:39.647Z,0
2016-10-31T01:06:49.959Z,0
2016-10-31T01:07:59.942Z,0
2016-10-31T01:09:09.905Z,0
2016-10-31T01:10:20.183Z,0
2016-10-31T01:11:30.144Z,0
2016-10-31T01:12:40.438Z,0
2016-10-31T01:13:50.721Z,0
2016-10-31T01:15:01.002Z,0
2016-10-31T01:16:11.298Z,0
2016-10-31T01:17:21.580Z,0
2016-10-31T01:18:31.866Z,0
2016-10-31T01:19:41.838Z,0
2016-10-31T01:20:52.130Z,0
2016-10-31T01:22:02.093Z,0
2016-10-31T01:23:11.751Z,0
2016-10-31T01:24:21.721Z,0
2016-10-31T01:25:32.051Z,0
2016-10-31T01:26:42.089Z,0
2016-10-31T01:27:52.365Z,0
2016-10-31T01:29:02.043Z,0
2016-10-31T01:30:11.401Z,0
2016-10-31T01:31:21.074Z,0
2016-10-31T01:32:31.047Z,0
2016-10-31T01:33:41.030Z,0
2016-10-31T01:34:50.696Z,0
2016-10-31T01:36:00.987Z,0
2016-10-31T01:37:11.022Z,0
2016-10-31T01:38:21.304Z,0
2016-10-31T01:39:31.290Z,0
2016-10-31T01:40:41.268Z,0
2016-10-31T01:41:51.545Z,0
2016-10-31T01:43:01.840Z,0
2016-10-31T01:44:11.496Z,0
2016-10-31T01:45:21.479Z,0
2016-10-31T01:46:31.770Z,0
2016-10-31T01:47:42.072Z,0
2016-10-31T01:48:52.349Z,0
2016-10-31T01:50:02.319Z,0
2016-10-31T01:51:12.607Z,0
2016-10-31T01:52:22.588Z,0
2016-10-31T01:53:32.870Z,0
2016-10-31T01:54:42.847Z,0
2016-10-31T01:55:53.129Z,0
2016-10-31T01:57:03.466Z,0
2016-10-31T01:58:13.740Z,0
2016-10-31T01:59:23.417Z,0
2016-10-31T02:00:33.389Z,0
2016-10-31T02:01:43.684Z,0
2016-10-31T02:02:53.957Z,0
2016-10-31T02:04:04.281Z,0
2016-10-31T02:05:14.555Z,0
2016-10-31T02:06:24.541Z,0
2016-10-31T02:07:34.512Z,0
2016-10-31T02:08:44.475Z,0
2016-10-31T02:09:54.166Z,0
2016-10-31T02:11:04.137Z,0
2016-10-31T02:12:14.415Z,0
2016-10-31T02:13:24.705Z,0
2016-10-31T02:14:34.360Z,0
2016-10-31T02:15:44.698Z,0
2016-10-31T02:16:54.671Z,0
2016-10-31T02:18:05.020Z,0
2016-10-31T02:19:15.037Z,0
2016-10-31T02:20:25.019Z,0
2016-10-31T02:21:35.056Z,0
2016-10-31T02:22:45.037Z,0
2016-10-31T02:23:55.029Z,0
2016-10-31T02:25:05.311Z,0
2016-10-31T02:26:15.287Z,0
2016-10-31T02:27:25.570Z,0
2016-10-31T02:28:35.841Z,0
2016-10-31T02:29:45.844Z,0
2016-10-31T02:30:55.495Z,0
2016-10-31T02:32:05.469Z,0
2016-10-31T02:33:15.444Z,0
2016-10-31T02:34:25.107Z,0
2016-10-31T02:35:35.112Z,0
2016-10-31T02:36:45.089Z,0
2016-10-31T02:37:55.369Z,0
2016-10-31T02:39:05.360Z,0
2016-10-31T02:40:15.344Z,0
2016-10-31T02:41:25.647Z,0
2016-10-31T02:42:35.609Z,0
2016-10-31T02:43:45.917Z,0
2016-10-31T02:44:56.191Z,0
2016-10-31T02:46:05.863Z,0
2016-10-31T02:47:16.176Z,0
2016-10-31T02:48:26.153Z,0
2016-10-31T02:49:36.119Z,0
2016-10-31T02:50:46.400Z,0
2016-10-31T02:51:56.682Z,0
2016-10-31T02:53:06.960Z,0
2016-10-31T02:54:17.237Z,0
2016-10-31T02:55:27.219Z,0
2016-10-31T02:56:37.494Z,0
2016-10-31T02:57:47.167Z,0
2016-10-31T02:58:57.149Z,0
2016-10-31T03:00:07.137Z,0
2016-10-31T03:01:17.105Z,0
2016-10-31T03:32:39.823Z,0
2016-10-31T03:33:49.788Z,0
2016-10-31T03:35:00.058Z,0
2016-10-31T03:36:10.031Z,0
2016-10-31T03:37:20.023Z,0
2016-10-31T03:38:30.304Z,0
2016-10-31T03:39:39.966Z,0
2016-10-31T03:40:49.332Z,0
2016-10-31T03:41:59.294Z,0
2016-10-31T03:43:09.252Z,0
2016-10-31T03:44:19.522Z,0
2016-10-31T03:45:29.809Z,0
2016-10-31T03:46:39.510Z,0
2016-10-31T03:47:49.783Z,0
2016-10-31T03:48:59.761Z,0
2016-10-31T03:50:10.051Z,0
2016-10-31T03:51:20.357Z,0
2016-10-31T03:52:30.336Z,0
2016-10-31T03:53:40.638Z,0
2016-10-31T03:54:50.927Z,0
2016-10-31T03:56:01.190Z,0
2016-10-31T03:57:11.482Z,0
2016-10-31T03:58:21.449Z,0
2016-10-31T03:59:31.756Z,0
2016-10-31T04:00:42.041Z,0
2016-10-31T04:01:52.318Z,0
2016-10-31T04:03:02.620Z,0
2016-10-31T04:04:12.607Z,0
2016-10-31T04:05:22.264Z,0
2016-10-31T04:06:32.292Z,0
2016-10-31T04:07:42.254Z,0
2016-10-31T04:08:52.574Z,0
2016-10-31T04:10:02.866Z,0
2016-10-31T04:11:13.148Z,0
2016-10-31T04:12:23.436Z,0
2016-10-31T04:13:33.406Z,0
2016-10-31T04:14:43.373Z,0
2016-10-31T04:15:53.684Z,0
2016-10-31T04:17:03.364Z,0
2016-10-31T04:18:13.688Z,0
2016-10-31T04:19:23.997Z,0
2016-10-31T04:20:33.681Z,0
2016-10-31T04:21:43.655Z,0
2016-10-31T04:22:53.326Z,0
2016-10-31T04:24:03.297Z,0
2016-10-31T04:25:13.284Z,0
2016-10-31T04:26:23.590Z,0
2016-10-31T04:27:33.258Z,0
2016-10-31T04:28:43.539Z,0
2016-10-31T04:29:53.515Z,0
2016-10-31T04:31:03.801Z,0
2016-10-31T04:32:14.083Z,0
2016-10-31T04:33:24.402Z,0
2016-10-31T04:34:34.068Z,0
2016-10-31T04:35:44.357Z,0
2016-10-31T04:36:54.380Z,0
2016-10-31T04:38:04.668Z,0
2016-10-31T04:39:14.628Z,0
2016-10-31T04:40:24.301Z,0
2016-10-31T04:41:34.268Z,0
2016-10-31T04:42:44.239Z,0
2016-10-31T04:43:54.223Z,0
2016-10-31T04:45:04.528Z,0
2016-10-31T04:46:14.820Z,0
2016-10-31T04:47:25.112Z,0
2016-10-31T04:48:35.388Z,0
2016-10-31T04:49:45.357Z,0
2016-10-31T04:50:55.376Z,0
2016-10-31T04:52:05.663Z,0
2016-10-31T04:53:15.314Z,0
2016-10-31T04:54:25.584Z,0
2016-10-31T04:55:35.882Z,0
2016-10-31T04:56:46.162Z,0
2016-10-31T04:57:56.139Z,0
2016-10-31T04:59:06.443Z,0
2016-10-31T05:00:16.761Z,0
2016-10-31T05:01:26.743Z,0
2016-10-31T05:02:36.411Z,0
2016-10-31T05:03:46.690Z,0
2016-10-31T05:04:56.672Z,0
2016-10-31T05:06:06.680Z,0
2016-10-31T05:07:16.957Z,0
2016-10-31T05:08:26.844Z,0
2016-10-31T05:09:37.125Z,0
2016-10-31T05:10:47.111Z,0
2016-10-31T05:11:57.439Z,0
2016-10-31T05:13:07.411Z,0
2016-10-31T05:14:17.389Z,0
2016-10-31T05:15:27.675Z,0
2016-10-31T05:16:37.946Z,0
2016-10-31T05:17:48.221Z,0
2016-10-31T05:18:58.201Z,0
2016-10-31T05:20:08.529Z,0
2016-10-31T05:21:18.506Z,0
2016-10-31T05:22:28.794Z,0
2016-10-31T05:23:39.076Z,0
2016-10-31T05:24:48.433Z,0
2016-10-31T05:25:58.723Z,0
2016-10-31T05:27:09.004Z,0
2016-10-31T05:28:19.012Z,0
2016-10-31T05:29:29.303Z,0
2016-10-31T05:30:38.982Z,0
2016-10-31T05:31:48.978Z,0
2016-10-31T05:32:59.267Z,0
2016-10-31T05:34:09.294Z,0
2016-10-31T05:35:19.578Z,5
2016-10-31T05:36:29.544Z,5
2016-10-31T05:37:39.205Z,5
2016-10-31T05:38:49.178Z,5
2016-10-31T05:39:59.470Z,5
2016-10-31T05:41:09.790Z,5
2016-10-31T05:42:20.072Z,5
2016-10-31T05:43:29.775Z,10
2016-10-31T05:44:40.063Z,10
2016-10-31T05:45:50.037Z,10
2016-10-31T05:47:00.075Z,10
2016-10-31T05:48:10.346Z,10
2016-10-31T05:49:20.632Z,15
2016-10-31T05:50:30.603Z,15
2016-10-31T05:51:40.275Z,15
2016-10-31T05:52:50.552Z,15
2016-10-31T05:54:00.821Z,20
2016-10-31T05:55:11.091Z,20
2016-10-31T05:56:21.386Z,20
2016-10-31T05:57:31.365Z,20
2016-10-31T05:58:41.345Z,25
2016-10-31T05:59:51.650Z,25
2016-10-31T06:01:01.914Z,25
2016-10-31T06:02:12.200Z,30
2016-10-31T06:03:22.477Z,30
2016-10-31T06:04:32.454Z,30
2016-10-31T06:05:42.732Z,35
2016-10-31T06:06:52.781Z,35
2016-10-31T06:08:03.054Z,35
2016-10-31T06:09:13.330Z,40
2016-10-31T06:10:23.328Z,40
2016-10-31T06:11:32.994Z,40
2016-10-31T06:12:43.276Z,45
2016-10-31T06:13:53.548Z,45
2016-10-31T06:15:03.844Z,45
2016-10-31T06:16:13.846Z,50
2016-10-31T06:17:23.829Z,50
2016-10-31T06:18:33.516Z,50
2016-10-31T06:19:43.490Z,50
2016-10-31T06:20:53.772Z,50
2016-10-31T06:22:04.059Z,50
2016-10-31T06:23:14.335Z,55
2016-10-31T06:24:24.622Z,55
2016-10-31T06:25:34.585Z,55
2016-10-31T06:26:44.881Z,60
2016-10-31T06:27:54.872Z,60
2016-10-31T06:29:04.863Z,60
2016-10-31T06:30:14.550Z,60
2016-10-31T06:31:24.833Z,65
2016-10-31T06:32:34.809Z,60
2016-10-31T06:33:44.790Z,65
2016-10-31T06:34:55.073Z,65
2016-10-31T06:36:05.353Z,65
2016-10-31T06:37:15.655Z,70
2016-10-31T06:38:25.957Z,75
2016-10-31T06:39:36.234Z,75
2016-10-31T06:40:46.510Z,75
2016-10-31T06:41:56.856Z,75
2016-10-31T06:43:07.124Z,85
2016-10-31T06:44:17.410Z,85
2016-10-31T06:45:27.417Z,85
2016-10-31T06:46:37.725Z,85
2016-10-31T06:47:48.035Z,90
2016-10-31T06:48:58.028Z,90
2016-10-31T06:50:08.303Z,90
2016-10-31T06:51:18.289Z,90
2016-10-31T06:52:28.576Z,95
2016-10-31T06:53:38.556Z,95
2016-10-31T06:54:48.839Z,100
2016-10-31T06:55:58.841Z,95
2016-10-31T06:57:09.133Z,95
2016-10-31T06:58:19.455Z,95
2016-10-31T06:59:29.721Z,100
2016-10-31T07:00:39.695Z,100
2016-10-31T07:01:49.666Z,105
2016-10-31T07:02:59.655Z,105
2016-10-31T07:04:09.934Z,105
2016-10-31T07:05:20.290Z,105
2016-10-31T07:06:30.247Z,105
2016-10-31T07:07:40.543Z,110
2016-10-31T07:08:50.820Z,110
2016-10-31T07:10:01.122Z,105
2016-10-31T07:11:11.097Z,105
2016-10-31T07:12:21.403Z,110
2016-10-31T07:13:31.692Z,115
2016-10-31T07:14:42.002Z,115
2016-10-31T07:15:52.293Z,115
2016-10-31T07:17:02.571Z,115
2016-10-31T07:18:12.856Z,120
2016-10-31T07:19:23.149Z,120
2016-10-31T07:20:33.433Z,120
2016-10-31T07:21:43.717Z,120
2016-10-31T07:22:54.006Z,120
2016-10-31T07:24:04.287Z,125
2016-10-31T07:25:14.588Z,125
2016-10-31T07:26:24.892Z,120
2016-10-31T07:27:35.187Z,125
2016-10-31T07:28:45.473Z,125
2016-10-31T07:29:55.454Z,130
2016-10-31T07:31:05.421Z,130
2016-10-31T07:32:15.737Z,130
2016-10-31T07:33:25.733Z,135
2016-10-31T07:34:36.046Z,130
2016-10-31T07:35:46.342Z,135
2016-10-31T07:36:56.626Z,135
2016-10-31T07:38:06.912Z,130
2016-10-31T07:39:16.878Z,135
2016-10-31T07:40:26.886Z,140
2016-10-31T07:41:37.163Z,130
2016-10-31T07:42:46.842Z,145
2016-10-31T07:43:56.834Z,145
2016-10-31T07:45:06.802Z,145
2016-10-31T07:46:16.480Z,150
2016-10-31T07:47:26.774Z,150
2016-10-31T07:48:37.050Z,150
2016-10-31T07:49:47.029Z,150
2016-10-31T07:50:57.340Z,145
2016-10-31T07:52:07.319Z,150
2016-10-31T07:53:17.603Z,150
2016-10-31T07:54:27.925Z,155
2016-10-31T07:55:38.226Z,160
2016-10-31T07:56:48.570Z,155
2016-10-31T07:57:58.561Z,155
2016-10-31T07:59:08.539Z,155
2016-10-31T08:00:18.510Z,160
2016-10-31T08:01:28.801Z,150
2016-10-31T08:02:38.502Z,165
2016-10-31T08:03:48.795Z,155
2016-10-31T08:04:59.091Z,160
2016-10-31T08:06:09.258Z,165
2016-10-31T08:07:19.539Z,165
2016-10-31T08:08:29.845Z,165
2016-10-31T08:09:39.817Z,155
2016-10-31T08:10:49.794Z,165
2016-10-31T08:12:00.070Z,165
2016-10-31T08:13:09.740Z,170
2016-10-31T08:14:20.024Z,165
2016-10-31T08:15:30.313Z,165
2016-10-31T08:16:40.611Z,165
2016-10-31T08:17:50.914Z,150
2016-10-31T08:19:01.190Z,165
2016-10-31T08:20:11.179Z,165
2016-10-31T08:21:21.164Z,170
2016-10-31T08:22:31.475Z,170
2016-10-31T08:23:41.458Z,170
2016-10-31T08:24:51.754Z,170
2016-10-31T08:26:02.046Z,170
2016-10-31T08:27:12.313Z,160
2016-10-31T08:28:22.600Z,175
2016-10-31T08:29:32.562Z,175
2016-10-31T08:30:42.537Z,175
2016-10-31T08:31:52.515Z,175
2016-10-31T08:33:02.792Z,175
2016-10-31T08:34:12.768Z,180
2016-10-31T08:35:23.064Z,180
2016-10-31T08:36:33.388Z,185
2016-10-31T08:37:43.081Z,180
2016-10-31T08:38:53.365Z,180
2016-10-31T08:40:03.650Z,185
2016-10-31T08:41:13.632Z,190
2016-10-31T08:42:23.606Z,190
2016-10-31T08:43:33.581Z,185
2016-10-31T08:44:43.555Z,185
2016-10-31T08:45:53.550Z,185
2016-10-31T08:47:03.837Z,190
2016-10-31T08:48:14.147Z,180
2016-10-31T08:49:24.429Z,170
2016-10-31T08:50:34.377Z,185
2016-10-31T08:51:44.695Z,185
2016-10-31T08:52:54.373Z,175
2016-10-31T08:54:04.385Z,185
2016-10-31T08:55:14.692Z,190
2016-10-31T08:56:24.695Z,185
2016-10-31T08:57:34.983Z,185
2016-10-31T08:58:45.283Z,185
2016-10-31T08:59:55.289Z,185
2016-10-31T09:01:05.581Z,190
2016-10-31T09:02:15.868Z,190
2016-10-31T09:03:26.171Z,190
2016-10-31T09:04:36.171Z,195
2016-10-31T09:05:46.157Z,200
2016-10-31T09:06:56.144Z,190
2016-10-31T09:08:05.816Z,195
2016-10-31T09:09:15.817Z,195
2016-10-31T09:10:26.112Z,200
2016-10-31T09:11:36.443Z,205
2016-10-31T09:12:46.744Z,200
2016-10-31T09:13:56.738Z,200
2016-10-31T09:15:07.027Z,205
2016-10-31T09:16:17.313Z,210
2016-10-31T09:17:27.632Z,205
2016-10-31T09:18:37.935Z,205
2016-10-31T09:19:48.248Z,205
2016-10-31T09:20:58.549Z,205
2016-10-31T09:22:08.895Z,205
2016-10-31T09:23:18.872Z,205
2016-10-31T09:24:28.896Z,205
2016-10-31T09:25:39.195Z,205
2016-10-31T09:26:49.489Z,210
2016-10-31T09:27:59.798Z,205
2016-10-31T09:29:09.792Z,205
2016-10-31T09:30:20.078Z,205
2016-10-31T09:31:30.370Z,205
2016-10-31T09:32:40.659Z,210
2016-10-31T09:33:50.969Z,210
2016-10-31T09:35:01.300Z,210
2016-10-31T09:36:11.597Z,205
2016-10-31T09:37:21.893Z,215
2016-10-31T09:38:31.574Z,210
2016-10-31T09:39:41.571Z,210
2016-10-31T09:40:51.858Z,210
2016-10-31T09:42:02.168Z,215
2016-10-31T09:43:12.136Z,210
2016-10-31T09:44:22.428Z,210
2016-10-31T09:45:32.757Z,215
2016-10-31T09:46:43.066Z,210
2016-10-31T09:47:52.726Z,210
2016-10-31T09:49:02.702Z,210
2016-10-31T09:50:12.990Z,215
2016-10-31T09:51:23.276Z,215
2016-10-31T09:52:33.572Z,220
2016-10-31T09:53:43.560Z,220
2016-10-31T09:54:53.540Z,220
2016-10-31T09:56:03.528Z,220
2016-10-31T09:57:13.213Z,220
2016-10-31T09:58:23.499Z,220
2016-10-31T09:59:33.791Z,220
2016-10-31T10:00:44.096Z,220
2016-10-31T10:01:54.085Z,220
2016-10-31T10:03:04.382Z,220
2016-10-31T10:04:14.057Z,220
2016-10-31T10:05:23.735Z,220
2016-10-31T10:06:33.719Z,225
2016-10-31T10:07:44.009Z,225
2016-10-31T10:08:53.990Z,220
2016-10-31T10:10:04.300Z,220
2016-10-31T10:11:14.300Z,225
2016-10-31T10:12:24.301Z,225
2016-10-31T10:13:34.598Z,225
2016-10-31T10:14:44.588Z,225
2016-10-31T10:15:54.877Z,225
2016-10-31T10:17:05.183Z,225
2016-10-31T10:18:15.470Z,230
2016-10-31T10:19:25.806Z,225
2016-10-31T10:20:35.788Z,225
2016-10-31T10:21:46.065Z,225
2016-10-31T10:22:56.366Z,230
2016-10-31T10:24:06.669Z,225
2016-10-31T10:25:16.660Z,225
2016-10-31T10:26:26.953Z,230
2016-10-31T10:27:37.241Z,230
2016-10-31T10:28:47.551Z,230
2016-10-31T10:29:57.844Z,230
2016-10-31T10:31:08.129Z,225
2016-10-31T10:32:18.111Z,230
2016-10-31T10:33:28.436Z,230
2016-10-31T10:34:38.455Z,230
2016-10-31T10:35:48.113Z,230
2016-10-31T10:36:58.432Z,230
2016-10-31T10:38:08.726Z,230
2016-10-31T10:39:19.023Z,225
2016-10-31T10:40:29.307Z,230
2016-10-31T10:41:39.286Z,230
2016-10-31T10:42:49.571Z,235
2016-10-31T10:43:59.854Z,230
2016-10-31T10:45:09.529Z,230
2016-10-31T10:46:19.556Z,105
2016-10-31T10:47:29.888Z,230
2016-10-31T10:48:39.574Z,235
2016-10-31T10:49:49.651Z,230
2016-10-31T10:50:59.315Z,240
2016-10-31T10:52:09.665Z,235
2016-10-31T10:53:19.987Z,235
2016-10-31T10:54:30.278Z,230
2016-10-31T10:55:40.578Z,240
2016-10-31T10:56:50.884Z,240
2016-10-31T10:58:01.204Z,240
2016-10-31T10:59:11.505Z,245
2016-10-31T11:00:21.809Z,240
2016-10-31T11:01:31.834Z,240
2016-10-31T11:02:41.831Z,245
2016-10-31T11:03:52.135Z,240
2016-10-31T11:05:02.441Z,235
2016-10-31T11:06:12.727Z,240
2016-10-31T11:07:23.029Z,240
2016-10-31T11:08:33.002Z,240
2016-10-31T11:09:43.286Z,245
2016-10-31T11:10:53.588Z,245
2016-10-31T11:12:03.599Z,245
2016-10-31T11:13:13.878Z,240
2016-10-31T11:14:24.165Z,250
2016-10-31T11:15:34.459Z,245
2016-10-31T11:16:44.753Z,245
2016-10-31T11:17:55.085Z,250
2016-10-31T11:19:05.082Z,245
2016-10-31T11:20:15.414Z,245
2016-10-31T11:21:25.708Z,240
2016-10-31T11:22:36.012Z,240
2016-10-31T11:23:46.313Z,245
2016-10-31T11:24:56.605Z,240
2016-10-31T11:26:06.611Z,245
2016-10-31T11:27:16.594Z,230
2016-10-31T11:28:26.903Z,245
2016-10-31T11:29:37.198Z,240
2016-10-31T11:30:47.508Z,245
2016-10-31T11:31:56.877Z,240
2016-10-31T11:33:06.867Z,235
2016-10-31T11:34:17.259Z,240
2016-10-31T11:35:27.554Z,235
2016-10-31T11:36:37.551Z,235
2016-10-31T11:37:47.838Z,245
2016-10-31T11:38:57.815Z,235
2016-10-31T11:40:07.834Z,240
2016-10-31T11:41:18.132Z,245
2016-10-31T11:42:28.437Z,240
2016-10-31T11:43:38.744Z,240
2016-10-31T11:44:49.055Z,245
2016-10-31T11:45:59.353Z,230
2016-10-31T11:47:09.342Z,235
2016-10-31T11:48:19.353Z,230
2016-10-31T11:49:29.736Z,235
2016-10-31T11:50:40.126Z,245
2016-10-31T11:51:50.475Z,235
2016-10-31T11:53:00.540Z,235
2016-10-31T11:54:10.893Z,235
2016-10-31T11:55:20.938Z,235
2016-10-31T11:56:31.283Z,240
2016-10-31T11:57:41.639Z,245
2016-10-31T11:58:52.027Z,245
2016-10-31T12:00:02.079Z,245
2016-10-31T12:01:12.210Z,220
2016-10-31T12:02:22.574Z,240
2016-10-31T12:03:32.921Z,245
2016-10-31T12:04:43.295Z,245
2016-10-31T12:05:53.666Z,255
2016-10-31T12:07:04.104Z,255
2016-10-31T12:08:14.428Z,255
2016-10-31T12:09:24.509Z,255
2016-10-31T12:10:34.884Z,245
2016-10-31T12:11:45.225Z,245
2016-10-31T12:12:55.569Z,250
2016-10-31T12:14:05.616Z,230
2016-10-31T12:15:15.984Z,255
2016-10-31T12:16:26.381Z,245
2016-10-31T12:17:36.757Z,255
2016-10-31T12:18:47.124Z,255
2016-10-31T12:19:57.495Z,255
2016-10-31T12:21:07.813Z,255
2016-10-31T12:22:18.152Z,255
2016-10-31T12:23:28.480Z,255
2016-10-31T12:24:38.879Z,255
2016-10-31T12:25:49.226Z,255
2016-10-31T12:26:59.577Z,250
2016-10-31T12:28:09.984Z,250
2016-10-31T12:29:20.369Z,250
2016-10-31T12:30:30.370Z,245
2016-10-31T12:31:40.451Z,245
2016-10-31T12:32:50.803Z,245
2016-10-31T12:34:01.115Z,240
2016-10-31T12:35:10.810Z,235
2016-10-31T12:36:20.815Z,235
2016-10-31T12:37:30.861Z,225
2016-10-31T12:38:41.249Z,225
2016-10-31T12:39:51.605Z,225
2016-10-31T12:41:01.969Z,225
2016-10-31T12:42:12.336Z,220
2016-10-31T12:43:22.666Z,220
2016-10-31T12:44:32.983Z,215
2016-10-31T12:45:43.355Z,215
2016-10-31T12:46:53.752Z,215
2016-10-31T12:48:03.754Z,195
2016-10-31T12:49:14.075Z,205
2016-10-31T12:50:24.406Z,210
2016-10-31T12:51:34.728Z,210
2016-10-31T12:52:45.049Z,205
2016-10-31T12:53:55.397Z,210
2016-10-31T12:55:05.702Z,210
2016-10-31T12:56:15.407Z,200
2016-10-31T12:57:25.431Z,205
2016-10-31T12:58:35.752Z,205
2016-10-31T12:59:46.098Z,205
2016-10-31T13:00:55.771Z,205
2016-10-31T13:02:05.463Z,200
2016-10-31T13:03:15.496Z,200
2016-10-31T13:04:25.220Z,200
2016-10-31T13:05:35.534Z,200
2016-10-31T13:06:45.809Z,195
2016-10-31T13:07:55.793Z,195
2016-10-31T13:09:06.101Z,190
2016-10-31T13:10:16.413Z,190
2016-10-31T13:11:26.968Z,190
2016-10-31T13:12:36.672Z,190
2016-10-31T13:13:46.669Z,190
2016-10-31T13:14:57.234Z,185
2016-10-31T13:16:07.551Z,190
2016-10-31T13:17:17.533Z,185
2016-10-31T13:18:27.858Z,185
2016-10-31T13:19:38.161Z,180
2016-10-31T13:20:48.471Z,180
2016-10-31T13:21:58.445Z,185
2016-10-31T13:23:08.789Z,175
2016-10-31T13:24:18.777Z,175
2016-10-31T13:25:28.770Z,175
2016-10-31T13:26:39.074Z,175
2016-10-31T13:27:49.440Z,170
2016-10-31T13:28:59.749Z,170
2016-10-31T13:30:09.755Z,170
2016-10-31T13:31:20.057Z,170
2016-10-31T13:32:30.067Z,170
2016-10-31T13:33:40.053Z,170
2016-10-31T13:34:50.074Z,165
2016-10-31T13:36:00.602Z,165
2016-10-31T13:37:10.912Z,165
2016-10-31T13:38:21.234Z,165
2016-10-31T13:39:31.221Z,160
2016-10-31T13:40:41.527Z,160
2016-10-31T13:41:51.825Z,160
2016-10-31T13:43:02.142Z,160
2016-10-31T13:44:12.468Z,160
2016-10-31T13:45:22.796Z,160
2016-10-31T13:46:33.097Z,160
2016-10-31T13:47:43.103Z,155
2016-10-31T13:48:52.799Z,155
2016-10-31T13:50:03.095Z,155
2016-10-31T13:51:13.410Z,155
2016-10-31T13:52:23.745Z,150
2016-10-31T13:53:33.741Z,150
2016-10-31T13:54:43.749Z,150
2016-10-31T13:55:53.778Z,150
2016-10-31T13:57:03.761Z,145
2016-10-31T13:58:13.754Z,145
2016-10-31T13:59:23.804Z,145
2016-10-31T14:00:34.379Z,140
2016-10-31T14:01:44.393Z,140
2016-10-31T14:02:54.715Z,140
2016-10-31T14:04:04.718Z,135
2016-10-31T14:05:15.049Z,135
2016-10-31T14:06:25.390Z,135
2016-10-31T14:07:35.710Z,130
2016-10-31T14:08:46.101Z,130
2016-10-31T14:09:56.409Z,130
2016-10-31T14:11:06.747Z,125
2016-10-31T14:12:17.057Z,125
2016-10-31T14:13:27.369Z,125
2016-10-31T14:14:37.671Z,120
2016-10-31T14:15:47.981Z,120
2016-10-31T14:16:58.001Z,120
2016-10-31T14:18:08.306Z,115
2016-10-31T14:19:18.608Z,115
2016-10-31T14:20:28.900Z,110
2016-10-31T14:21:39.205Z,110
2016-10-31T14:22:49.215Z,110
2016-10-31T14:23:59.505Z,105
2016-10-31T14:25:09.499Z,110
2016-10-31T14:26:19.830Z,100
2016-10-31T14:27:30.121Z,100
2016-10-31T14:28:39.809Z,95
2016-10-31T14:29:49.499Z,95
2016-10-31T14:30:59.494Z,95
2016-10-31T14:32:09.475Z,95
2016-10-31T14:33:19.166Z,95
2016-10-31T14:34:29.177Z,90
2016-10-31T14:35:39.473Z,90
2016-10-31T14:36:49.783Z,85
2016-10-31T14:37:59.792Z,85
2016-10-31T14:39:10.088Z,80
2016-10-31T14:40:20.393Z,80
2016-10-31T14:41:30.692Z,75
2016-10-31T14:42:40.677Z,75
2016-10-31T14:43:50.688Z,70
2016-10-31T14:45:01.021Z,70
2016-10-31T14:46:11.322Z,65
2016-10-31T14:47:21.004Z,65
2016-10-31T14:48:31.334Z,60
2016-10-31T14:49:41.023Z,60
2016-10-31T14:50:51.321Z,55
2016-10-31T14:52:01.344Z,55
2016-10-31T14:53:11.643Z,55
2016-10-31T14:54:21.938Z,55
2016-10-31T14:55:31.924Z,55
2016-10-31T14:56:42.239Z,50
2016-10-31T14:57:52.552Z,50
2016-10-31T14:59:02.845Z,45
2016-10-31T15:00:13.255Z,45
2016-10-31T15:01:23.568Z,40
2016-10-31T15:02:33.872Z,40
2016-10-31T15:03:43.917Z,40
2016-10-31T15:04:53.655Z,35
2016-10-31T15:06:03.647Z,35
2016-10-31T15:07:13.952Z,35
2016-10-31T15:08:24.271Z,30
2016-10-31T15:09:34.263Z,30
2016-10-31T15:10:44.565Z,30
2016-10-31T15:11:54.893Z,25
2016-10-31T15:13:05.214Z,25
2016-10-31T15:14:15.561Z,20
2016-10-31T15:15:25.882Z,20
2016-10-31T15:16:35.890Z,20
2016-10-31T15:17:46.205Z,20
2016-10-31T15:18:56.508Z,20
2016-10-31T15:20:06.823Z,15
2016-10-31T15:21:16.509Z,15
2016-10-31T15:22:26.529Z,15
2016-10-31T15:23:36.838Z,15
2016-10-31T15:24:47.134Z,10
2016-10-31T15:25:57.126Z,10
2016-10-31T15:27:06.806Z,10
2016-10-31T15:28:16.799Z,10
2016-10-31T15:29:26.782Z,10
2016-10-31T15:30:37.093Z,5
2016-10-31T15:31:47.395Z,5
2016-10-31T15:32:57.724Z,5
2016-10-31T15:34:08.043Z,5
2016-10-31T15:35:18.350Z,5
2016-10-31T15:36:28.367Z,5
2016-10-31T15:37:38.384Z,5
2016-10-31T15:38:48.783Z,0
2016-10-31T15:39:59.096Z,0
2016-10-31T15:41:09.497Z,0
2016-10-31T15:42:19.819Z,0
2016-10-31T15:43:30.137Z,0
2016-10-31T15:44:40.458Z,0
2016-10-31T15:45:52.019Z,0
2016-10-31T15:47:05.407Z,0
2016-10-31T15:48:19.099Z,0
2016-10-31T15:49:32.984Z,0
2016-10-31T15:50:43.897Z,0
2016-10-31T15:51:53.956Z,0
2016-10-31T15:53:04.310Z,0
2016-10-31T15:54:14.602Z,0
2016-10-31T15:55:24.602Z,0
2016-10-31T15:56:34.897Z,0
2016-10-31T15:57:45.214Z,0
2016-10-31T15:58:55.205Z,0
2016-10-31T16:00:05.520Z,0
2016-10-31T16:01:15.875Z,0
2016-10-31T16:02:26.186Z,0
2016-10-31T16:03:36.176Z,0
2016-10-31T16:04:46.475Z,0
2016-10-31T16:05:56.774Z,0
2016-10-31T16:07:07.085Z,0
2016-10-31T16:08:17.423Z,0
2016-10-31T16:09:27.409Z,0
2016-10-31T16:10:37.711Z,0
2016-10-31T16:11:48.152Z,0
2016-10-31T16:12:58.436Z,0
2016-10-31T16:14:09.118Z,0
2016-10-31T16:15:19.432Z,0
2016-10-31T16:16:29.796Z,0
2016-10-31T16:17:40.088Z,0
2016-10-31T16:18:50.128Z,0
2016-10-31T16:20:00.133Z,0
2016-10-31T16:21:10.441Z,0
2016-10-31T16:22:20.737Z,0
2016-10-31T16:23:30.429Z,0
2016-10-31T16:24:40.741Z,0
2016-10-31T16:25:51.055Z,0
2016-10-31T16:27:01.370Z,0
2016-10-31T16:28:11.660Z,0
2016-10-31T16:29:22.029Z,0
2016-10-31T16:30:32.312Z,0
2016-10-31T16:31:42.298Z,0
2016-10-31T16:32:52.601Z,0
2016-10-31T16:34:02.907Z,0
2016-10-31T16:35:13.226Z,0
2016-10-31T16:36:23.529Z,0
2016-10-31T16:37:33.523Z,0
2016-10-31T16:38:43.819Z,0
2016-10-31T16:39:54.131Z,0
2016-10-31T16:41:04.659Z,0
2016-10-31T16:42:14.997Z,0
2016-10-31T16:43:25.338Z,0
2016-10-31T16:44:35.658Z,0
2016-10-31T16:45:45.735Z,0
2016-10-31T16:46:56.023Z,0
2016-10-31T16:48:06.331Z,0
2016-10-31T16:49:16.656Z,0
2016-10-31T16:50:26.667Z,0
2016-10-31T16:51:36.767Z,0
2016-10-31T16:52:47.099Z,0
2016-10-31T16:53:57.404Z,0
2016-10-31T16:55:07.407Z,0
2016-10-31T16:56:17.743Z,0
2016-10-31T16:57:28.041Z,0
2016-10-31T16:58:38.390Z,0
2016-10-31T16:59:48.435Z,0
2016-10-31T17:00:58.752Z,0
2016-10-31T17:02:08.790Z,0
2016-10-31T17:03:19.134Z,0
2016-10-31T17:04:29.436Z,0
2016-10-31T17:05:39.744Z,0
2016-10-31T17:06:50.059Z,0
2016-10-31T17:08:00.040Z,0
2016-10-31T17:09:10.340Z,0